Hauptseite
METAR-TAF:

METAR-TAF

Flughäfen :

Clearfield-Lawrence Airport

Clearfield, Pennsylvania, Vereinigte Staaten

Breite: 41-02-48N, Länge: 078-24-42W, Höhe: 462 m

Beobachtung

Neuester Wetterbericht von vor 18 Minuten, um 02:54 UTC
Wind 5 kt aus Nord/Nordost
Temperatur 9°C
Luftfeuchtigkeit 93%
Luftdruck 1013 hPa
Sichtweite: 2.0 km
Aufgelockert bewölkt in der Höhe von 900 ft
Durchbrochene Bewölkung in der Höhe von 3800 ft
Geschlossene Wolkendecke in der Höhe von 10000 ft
feuchter Dunst

METAR: KFIG 290254Z AUTO 02005KT 1 1/4SM BR SCT009 BKN038 OVC100 09/08 A2991 RMK AO2 SLP136 60001 T00890078 51006

Zeit: 23:12 (03:12 UTC)


TAF: fehlend

Wetterbeobachtungen und Prognosen von mehr als 4000 Flughäfen (METAR und TAF Bericht).

Die verfügbaren Stationen werden durch gelbe und rote Markierungen auf der Karte dargestellt.

Führen Sie die Maus auf sie, um den Namen der Station zu sehen.

Darauf klicken, um die Beobachtung von Wetterbeobachtungen und Prognosen zu sehen.

Um die Karte zu ändern : klicken Sie auf den grünen Tasten mit einem schwarzen Kreuz Zum Vergrößern, auf den grünen Button mit einem Gedankenstrich zu verkleinern, oder auf die grünen Pfeile für benachbarte Karten.


METAR-TAF: